createdAt,value
2023-01-09T00:00:08.236Z,11.05
2023-01-09T00:01:08.136Z,10.99
2023-01-09T00:02:08.159Z,10.97
2023-01-09T00:03:08.112Z,10.99
2023-01-09T00:04:08.131Z,10.94
2023-01-09T00:05:08.096Z,10.82
2023-01-09T00:06:08.110Z,10.86
2023-01-09T00:07:08.077Z,10.84
2023-01-09T00:08:08.056Z,10.75
2023-01-09T00:09:08.071Z,10.84
2023-01-09T00:10:08.039Z,10.84
2023-01-09T00:11:08.035Z,10.78
2023-01-09T00:12:08.017Z,10.74
2023-01-09T00:13:07.995Z,10.69
2023-01-09T00:14:09.654Z,10.57
2023-01-09T00:15:07.966Z,10.59
2023-01-09T00:16:07.977Z,10.64
2023-01-09T00:17:07.967Z,10.56
2023-01-09T00:18:07.945Z,10.51
2023-01-09T00:19:07.933Z,10.64
2023-01-09T00:20:07.926Z,10.57
2023-01-09T00:21:07.906Z,10.54
2023-01-09T00:22:07.920Z,10.61
2023-01-09T00:23:07.879Z,10.72
2023-01-09T00:24:07.868Z,10.71
2023-01-09T00:25:07.870Z,10.79
2023-01-09T00:26:07.846Z,10.86
2023-01-09T00:27:07.839Z,10.90
2023-01-09T00:28:07.847Z,10.87
2023-01-09T00:29:07.817Z,10.93
2023-01-09T00:30:07.814Z,10.89
2023-01-09T00:31:07.824Z,10.86
2023-01-09T00:32:07.776Z,10.94
2023-01-09T00:33:07.787Z,10.99
2023-01-09T00:34:07.755Z,10.92
2023-01-09T00:35:07.747Z,10.86
2023-01-09T00:36:07.736Z,10.89
2023-01-09T00:37:07.724Z,10.92
2023-01-09T00:38:07.715Z,10.92
2023-01-09T00:39:07.724Z,10.97
2023-01-09T00:40:07.692Z,10.94
2023-01-09T00:41:07.685Z,10.89
2023-01-09T00:42:07.667Z,10.89
2023-01-09T00:43:07.656Z,10.94
2023-01-09T00:44:07.645Z,10.99
2023-01-09T00:45:07.649Z,10.87
2023-01-09T00:46:07.681Z,10.99
2023-01-09T00:47:07.606Z,11.00
2023-01-09T00:48:07.607Z,11.10
2023-01-09T00:49:07.588Z,11.05
2023-01-09T00:50:07.596Z,11.12
2023-01-09T00:51:07.573Z,11.15
2023-01-09T00:52:07.553Z,11.17
2023-01-09T00:53:07.546Z,11.17
2023-01-09T00:54:07.534Z,11.15
2023-01-09T00:55:07.515Z,11.15
2023-01-09T00:56:07.534Z,11.08
2023-01-09T00:57:07.496Z,11.07
2023-01-09T00:58:07.921Z,11.02
2023-01-09T00:59:07.479Z,11.05
2023-01-09T01:00:07.464Z,11.12
2023-01-09T01:01:07.563Z,11.15
2023-01-09T01:02:07.616Z,11.18
2023-01-09T01:03:07.468Z,11.23
2023-01-09T01:04:07.915Z,11.05
2023-01-09T01:05:07.917Z,11.17
2023-01-09T01:06:07.920Z,11.19
2023-01-09T01:07:07.921Z,11.11
2023-01-09T01:08:07.924Z,11.05
2023-01-09T01:09:07.369Z,11.11
2023-01-09T01:10:07.380Z,10.97
2023-01-09T01:11:07.343Z,11.04
2023-01-09T01:12:07.533Z,11.05
2023-01-09T01:13:07.322Z,10.87
2023-01-09T01:14:07.320Z,10.87
2023-01-09T01:15:07.299Z,10.93
2023-01-09T01:16:07.273Z,11.04
2023-01-09T01:17:07.270Z,11.05
2023-01-09T01:18:07.271Z,10.99
2023-01-09T01:19:07.284Z,11.07
2023-01-09T01:20:07.243Z,11.15
2023-01-09T01:21:07.227Z,11.08
2023-01-09T01:22:07.240Z,11.11
2023-01-09T01:23:07.213Z,11.14
2023-01-09T01:24:07.192Z,11.23
2023-01-09T01:25:07.212Z,11.15
2023-01-09T01:26:07.180Z,11.17
2023-01-09T01:27:07.163Z,11.08
2023-01-09T01:28:07.148Z,11.08
2023-01-09T01:29:07.135Z,11.18
2023-01-09T01:30:07.132Z,11.23
2023-01-09T01:31:07.207Z,11.29
2023-01-09T01:32:07.105Z,11.18
2023-01-09T01:33:07.096Z,11.17
2023-01-09T01:34:07.087Z,11.19
2023-01-09T01:35:07.073Z,11.30
2023-01-09T01:36:07.060Z,11.23
2023-01-09T01:37:07.058Z,11.30
2023-01-09T01:38:07.034Z,11.25
2023-01-09T01:39:07.017Z,11.29
2023-01-09T01:40:07.009Z,11.35
2023-01-09T01:41:06.996Z,11.43
2023-01-09T01:42:07.005Z,11.45
2023-01-09T01:43:06.997Z,11.29
2023-01-09T01:44:06.966Z,11.26
2023-01-09T01:45:06.971Z,11.30
2023-01-09T01:46:06.985Z,11.36
2023-01-09T01:47:06.925Z,11.43
2023-01-09T01:48:06.919Z,11.37
2023-01-09T01:49:06.925Z,11.43
2023-01-09T01:50:06.887Z,11.37
2023-01-09T01:51:06.884Z,11.45
2023-01-09T01:52:06.863Z,11.44
2023-01-09T01:53:06.855Z,11.40
2023-01-09T01:54:06.853Z,11.30
2023-01-09T01:55:06.883Z,11.32
2023-01-09T01:56:06.833Z,11.22
2023-01-09T01:57:06.814Z,11.05
2023-01-09T01:58:06.796Z,11.22
2023-01-09T01:59:06.797Z,11.36
2023-01-09T02:00:06.773Z,11.41
2023-01-09T02:01:06.971Z,11.35
2023-01-09T02:02:06.872Z,11.26
2023-01-09T02:03:06.802Z,11.15
2023-01-09T02:04:06.760Z,11.29
2023-01-09T02:05:06.724Z,11.32
2023-01-09T02:06:06.715Z,11.36
2023-01-09T02:07:06.752Z,11.35
2023-01-09T02:08:06.693Z,11.41
2023-01-09T02:09:06.698Z,11.45
2023-01-09T02:10:06.676Z,11.33
2023-01-09T02:11:06.662Z,11.12
2023-01-09T02:12:06.655Z,11.25
2023-01-09T02:13:06.653Z,11.23
2023-01-09T02:14:06.623Z,11.22
2023-01-09T02:15:06.601Z,11.22
2023-01-09T02:16:06.628Z,11.23
2023-01-09T02:17:06.586Z,11.32
2023-01-09T02:18:06.600Z,11.35
2023-01-09T02:19:06.563Z,11.35
2023-01-09T02:20:06.543Z,11.41
2023-01-09T02:21:06.532Z,11.36
2023-01-09T02:22:06.528Z,11.41
2023-01-09T02:23:06.511Z,11.43
2023-01-09T02:24:06.514Z,11.48
2023-01-09T02:25:06.493Z,11.52
2023-01-09T02:26:06.475Z,11.54
2023-01-09T02:27:06.464Z,11.55
2023-01-09T02:28:06.454Z,11.54
2023-01-09T02:29:06.466Z,11.48
2023-01-09T02:30:06.435Z,11.48
2023-01-09T02:31:06.423Z,11.47
2023-01-09T02:32:06.404Z,11.40
2023-01-09T02:33:06.393Z,11.37
2023-01-09T02:34:06.382Z,11.40
2023-01-09T02:35:06.438Z,11.44
2023-01-09T02:36:06.362Z,11.45
2023-01-09T02:37:06.358Z,11.47
2023-01-09T02:38:06.343Z,11.47
2023-01-09T02:39:06.333Z,11.47
2023-01-09T02:40:06.313Z,11.44
2023-01-09T02:41:06.340Z,11.44
2023-01-09T02:42:06.308Z,11.44
2023-01-09T02:43:06.285Z,11.43
2023-01-09T02:44:06.271Z,11.44
2023-01-09T02:45:06.267Z,11.43
2023-01-09T02:46:06.268Z,11.40
2023-01-09T02:47:06.259Z,11.35
2023-01-09T02:48:06.224Z,11.33
2023-01-09T02:49:06.231Z,11.35
2023-01-09T02:50:06.218Z,11.33
2023-01-09T02:51:06.193Z,11.29
2023-01-09T02:52:06.204Z,11.26
2023-01-09T02:53:06.179Z,11.26
2023-01-09T02:54:06.164Z,11.26
2023-01-09T02:55:06.161Z,11.26
2023-01-09T02:56:06.141Z,11.26
2023-01-09T02:57:06.156Z,11.26
2023-01-09T02:58:06.156Z,11.23
2023-01-09T02:59:06.100Z,11.19
2023-01-09T03:00:06.099Z,11.17
2023-01-09T03:01:06.164Z,11.14
2023-01-09T03:02:06.224Z,11.12
2023-01-09T03:03:06.093Z,11.11
2023-01-09T03:04:06.054Z,11.11
2023-01-09T03:05:06.043Z,11.07
2023-01-09T03:06:06.024Z,11.08
2023-01-09T03:07:06.015Z,11.05
2023-01-09T03:08:05.994Z,11.04
2023-01-09T03:09:06.013Z,11.00
2023-01-09T03:10:05.974Z,11.00
2023-01-09T03:11:05.964Z,10.97
2023-01-09T03:12:05.954Z,10.92
2023-01-09T03:13:05.940Z,10.89
2023-01-09T03:14:05.934Z,10.92
2023-01-09T03:15:05.946Z,10.92
2023-01-09T03:16:05.947Z,10.90
2023-01-09T03:17:05.907Z,10.93
2023-01-09T03:18:05.887Z,10.94
2023-01-09T03:19:05.877Z,10.81
2023-01-09T03:20:05.863Z,10.71
2023-01-09T03:21:05.877Z,10.72
2023-01-09T03:22:05.885Z,10.81
2023-01-09T03:23:05.831Z,10.75
2023-01-09T03:24:05.819Z,10.51
2023-01-09T03:25:05.803Z,10.41
2023-01-09T03:26:05.794Z,10.40
2023-01-09T03:27:05.813Z,10.42
2023-01-09T03:28:05.774Z,10.54
2023-01-09T03:29:05.763Z,10.60
2023-01-09T03:30:05.747Z,10.67
2023-01-09T03:31:05.782Z,10.68
2023-01-09T03:32:05.723Z,10.69
2023-01-09T03:33:05.741Z,10.72
2023-01-09T03:34:05.704Z,10.72
2023-01-09T03:35:05.693Z,10.69
2023-01-09T03:36:05.684Z,10.69
2023-01-09T03:37:05.673Z,10.71
2023-01-09T03:38:07.352Z,10.59
2023-01-09T03:39:05.655Z,10.59
2023-01-09T03:40:05.641Z,10.64
2023-01-09T03:41:05.633Z,10.71
2023-01-09T03:42:05.625Z,10.60
2023-01-09T03:43:05.604Z,10.67
2023-01-09T03:44:05.616Z,10.64
2023-01-09T03:45:05.588Z,10.68
2023-01-09T03:46:05.691Z,10.64
2023-01-09T03:47:05.583Z,10.60
2023-01-09T03:48:05.554Z,10.56
2023-01-09T03:49:05.542Z,10.56
2023-01-09T03:50:05.545Z,10.53
2023-01-09T03:51:05.514Z,10.57
2023-01-09T03:52:05.508Z,10.60
2023-01-09T03:53:05.496Z,10.68
2023-01-09T03:54:05.481Z,10.74
2023-01-09T03:55:05.481Z,10.72
2023-01-09T03:56:05.487Z,10.72
2023-01-09T03:57:05.445Z,10.61
2023-01-09T03:58:05.436Z,10.56
2023-01-09T03:59:05.428Z,10.64
2023-01-09T04:00:05.407Z,10.67
2023-01-09T04:01:05.537Z,10.64
2023-01-09T04:02:05.517Z,10.68
2023-01-09T04:03:05.383Z,10.75
2023-01-09T04:04:05.383Z,10.72
2023-01-09T04:05:05.358Z,10.71
2023-01-09T04:06:05.345Z,10.69
2023-01-09T04:07:05.369Z,10.68
2023-01-09T04:08:05.317Z,10.67
2023-01-09T04:09:05.317Z,10.63
2023-01-09T04:10:05.295Z,10.64
2023-01-09T04:11:05.313Z,10.61
2023-01-09T04:12:05.275Z,10.56
2023-01-09T04:13:05.284Z,10.48
2023-01-09T04:14:05.263Z,10.51
2023-01-09T04:15:05.245Z,10.60
2023-01-09T04:16:05.292Z,10.68
2023-01-09T04:17:05.227Z,10.67
2023-01-09T04:18:05.205Z,10.57
2023-01-09T04:19:05.226Z,10.54
2023-01-09T04:20:05.184Z,10.53
2023-01-09T04:21:05.176Z,10.59
2023-01-09T04:22:05.187Z,10.60
2023-01-09T04:23:05.165Z,10.63
2023-01-09T04:24:05.144Z,10.61
2023-01-09T04:25:05.144Z,10.51
2023-01-09T04:26:05.145Z,10.54
2023-01-09T04:27:05.114Z,10.48
2023-01-09T04:28:05.102Z,10.30
2023-01-09T04:29:05.087Z,10.28
2023-01-09T04:30:05.103Z,10.37
2023-01-09T04:31:05.067Z,10.37
2023-01-09T04:32:05.048Z,10.28
2023-01-09T04:33:05.047Z,10.28
2023-01-09T04:34:05.025Z,10.28
2023-01-09T04:35:05.014Z,10.28
2023-01-09T04:36:05.024Z,10.30
2023-01-09T04:37:05.005Z,10.33
2023-01-09T04:38:04.986Z,10.23
2023-01-09T04:39:04.991Z,10.30
2023-01-09T04:40:04.963Z,10.17
2023-01-09T04:41:04.994Z,10.23
2023-01-09T04:42:04.937Z,10.30
2023-01-09T04:43:04.934Z,10.25
2023-01-09T04:44:04.914Z,10.34
2023-01-09T04:45:04.979Z,10.38
2023-01-09T04:46:04.954Z,10.35
2023-01-09T04:47:04.907Z,10.35
2023-01-09T04:48:04.879Z,10.25
2023-01-09T04:49:04.854Z,10.23
2023-01-09T04:50:04.847Z,10.26
2023-01-09T04:51:04.840Z,10.13
2023-01-09T04:52:04.825Z,10.19
2023-01-09T04:53:04.833Z,10.25
2023-01-09T04:54:04.807Z,10.26
2023-01-09T04:55:04.802Z,10.25
2023-01-09T04:56:04.788Z,10.20
2023-01-09T04:57:04.782Z,10.13
2023-01-09T04:58:04.764Z,10.04
2023-01-09T04:59:04.764Z,9.98
2023-01-09T05:00:04.734Z,10.01
2023-01-09T05:01:04.814Z,10.10
2023-01-09T05:02:04.770Z,10.16
2023-01-09T05:03:04.700Z,10.17
2023-01-09T05:04:04.773Z,10.15
2023-01-09T05:05:04.683Z,10.07
2023-01-09T05:06:04.663Z,10.04
2023-01-09T05:07:04.654Z,10.05
2023-01-09T05:08:04.644Z,9.98
2023-01-09T05:09:04.639Z,9.95
2023-01-09T05:10:04.643Z,9.87
2023-01-09T05:11:04.612Z,9.79
2023-01-09T05:12:04.605Z,9.73
2023-01-09T05:13:04.590Z,9.58
2023-01-09T05:14:04.583Z,9.66
2023-01-09T05:15:04.579Z,9.59
2023-01-09T05:16:04.578Z,9.64
2023-01-09T05:17:04.548Z,9.66
2023-01-09T05:18:04.543Z,9.66
2023-01-09T05:19:04.521Z,9.66
2023-01-09T05:20:04.513Z,9.69
2023-01-09T05:21:04.523Z,9.64
2023-01-09T05:22:04.508Z,9.50
2023-01-09T05:23:04.479Z,9.44
2023-01-09T05:24:04.469Z,9.46
2023-01-09T05:25:04.463Z,9.54
2023-01-09T05:26:04.453Z,9.61
2023-01-09T05:27:04.444Z,9.65
2023-01-09T05:28:04.432Z,9.56
2023-01-09T05:29:04.404Z,9.59
2023-01-09T05:30:05.166Z,9.54
2023-01-09T05:31:04.389Z,9.54
2023-01-09T05:32:04.394Z,9.50
2023-01-09T05:33:04.363Z,9.56
2023-01-09T05:34:04.353Z,9.59
2023-01-09T05:35:04.339Z,9.62
2023-01-09T05:36:04.331Z,9.61
2023-01-09T05:37:04.315Z,9.69
2023-01-09T05:38:04.349Z,9.76
2023-01-09T05:39:04.292Z,9.73
2023-01-09T05:40:04.285Z,9.83
2023-01-09T05:41:04.273Z,9.86
2023-01-09T05:42:04.262Z,9.84
2023-01-09T05:43:04.252Z,9.83
2023-01-09T05:44:04.264Z,9.82
2023-01-09T05:45:04.224Z,9.84
2023-01-09T05:46:04.291Z,9.84
2023-01-09T05:47:04.203Z,9.86
2023-01-09T05:48:04.197Z,9.83
2023-01-09T05:49:04.182Z,9.77
2023-01-09T05:50:04.197Z,9.73
2023-01-09T05:51:04.165Z,9.66
2023-01-09T05:52:04.142Z,9.56
2023-01-09T05:53:04.131Z,9.55
2023-01-09T05:54:04.121Z,9.48
2023-01-09T05:55:04.141Z,9.43
2023-01-09T05:56:04.113Z,9.40
2023-01-09T05:57:04.095Z,9.43
2023-01-09T05:58:04.085Z,9.47
2023-01-09T05:59:04.063Z,9.51
2023-01-09T06:00:04.064Z,9.55
2023-01-09T06:01:04.088Z,9.58
2023-01-09T06:02:04.101Z,9.54
2023-01-09T06:03:04.061Z,9.47
2023-01-09T06:04:04.021Z,9.51
2023-01-09T06:05:04.011Z,9.50
2023-01-09T06:06:04.029Z,9.48
2023-01-09T06:07:03.982Z,9.48
2023-01-09T06:08:03.958Z,9.47
2023-01-09T06:09:03.956Z,9.50
2023-01-09T06:10:03.941Z,9.51
2023-01-09T06:11:03.933Z,9.55
2023-01-09T06:12:03.942Z,9.56
2023-01-09T06:13:03.901Z,9.51
2023-01-09T06:14:03.902Z,9.46
2023-01-09T06:15:03.884Z,9.43
2023-01-09T06:16:03.953Z,9.44
2023-01-09T06:17:03.860Z,9.46
2023-01-09T06:18:03.872Z,9.44
2023-01-09T06:19:03.841Z,9.40
2023-01-09T06:20:03.844Z,9.31
2023-01-09T06:21:03.821Z,9.26
2023-01-09T06:22:03.817Z,9.21
2023-01-09T06:23:03.791Z,9.16
2023-01-09T06:24:03.806Z,9.10
2023-01-09T06:25:03.778Z,9.13
2023-01-09T06:26:03.784Z,9.22
2023-01-09T06:27:03.846Z,9.23
2023-01-09T06:28:03.744Z,9.23
2023-01-09T06:29:03.738Z,9.25
2023-01-09T06:30:03.739Z,9.23
2023-01-09T06:31:03.779Z,9.23
2023-01-09T06:32:03.715Z,9.19
2023-01-09T06:33:03.679Z,9.14
2023-01-09T06:34:03.676Z,9.08
2023-01-09T06:35:03.661Z,9.11
2023-01-09T06:36:03.670Z,9.11
2023-01-09T06:37:03.787Z,9.16
2023-01-09T06:38:03.619Z,9.10
2023-01-09T06:39:03.612Z,9.10
2023-01-09T06:40:03.598Z,9.11
2023-01-09T06:41:03.599Z,9.10
2023-01-09T06:42:03.600Z,9.02
2023-01-09T06:43:03.564Z,8.92
2023-01-09T06:44:03.552Z,8.76
2023-01-09T06:45:03.541Z,8.74
2023-01-09T06:46:03.551Z,8.76
2023-01-09T06:47:03.519Z,8.67
2023-01-09T06:48:03.565Z,8.63
2023-01-09T06:49:03.495Z,8.66
2023-01-09T06:50:03.532Z,8.71
2023-01-09T06:51:03.469Z,8.74
2023-01-09T06:52:03.465Z,8.70
2023-01-09T06:53:03.449Z,8.67
2023-01-09T06:54:03.460Z,8.76
2023-01-09T06:55:03.437Z,8.66
2023-01-09T06:56:03.438Z,8.61
2023-01-09T06:57:03.407Z,8.56
2023-01-09T06:58:03.398Z,8.52
2023-01-09T06:59:03.386Z,8.55
2023-01-09T07:00:03.388Z,8.67
2023-01-09T07:01:03.466Z,8.63
2023-01-09T07:02:03.386Z,8.61
2023-01-09T07:03:03.339Z,8.58
2023-01-09T07:04:03.356Z,8.63
2023-01-09T07:05:03.328Z,8.52
2023-01-09T07:06:03.300Z,8.55
2023-01-09T07:07:03.294Z,8.51
2023-01-09T07:08:03.290Z,8.46
2023-01-09T07:09:03.271Z,8.53
2023-01-09T07:10:03.263Z,8.49
2023-01-09T07:11:03.271Z,8.52
2023-01-09T07:12:03.238Z,8.56
2023-01-09T07:13:03.221Z,8.56
2023-01-09T07:14:03.212Z,8.53
2023-01-09T07:15:03.215Z,8.55
2023-01-09T07:16:03.299Z,8.53
2023-01-09T07:17:03.229Z,8.56
2023-01-09T07:18:03.171Z,8.60
2023-01-09T07:19:03.160Z,8.58
2023-01-09T07:20:03.139Z,8.55
2023-01-09T07:21:03.136Z,8.53
2023-01-09T07:22:03.119Z,8.51
2023-01-09T07:23:03.119Z,8.52
2023-01-09T07:24:03.101Z,8.46
2023-01-09T07:25:03.107Z,8.44
2023-01-09T07:26:03.078Z,8.53
2023-01-09T07:27:03.077Z,8.60
2023-01-09T07:28:03.068Z,8.63
2023-01-09T07:29:03.034Z,8.64
2023-01-09T07:30:03.029Z,8.66
2023-01-09T07:31:03.045Z,8.71
2023-01-09T07:32:03.000Z,8.71
2023-01-09T07:33:04.110Z,8.79
2023-01-09T07:34:03.005Z,8.85
2023-01-09T07:35:02.966Z,8.82
2023-01-09T07:36:02.967Z,8.87
2023-01-09T07:37:02.950Z,8.89
2023-01-09T07:38:02.927Z,8.99
2023-01-09T07:39:02.920Z,9.00
2023-01-09T07:40:02.927Z,9.08
2023-01-09T07:41:02.890Z,9.03
2023-01-09T07:42:02.887Z,9.10
2023-01-09T07:43:02.868Z,9.13
2023-01-09T07:44:02.855Z,9.22
2023-01-09T07:45:02.877Z,9.19
2023-01-09T07:46:02.881Z,9.23
2023-01-09T07:47:02.834Z,9.31
2023-01-09T07:48:02.824Z,9.28
2023-01-09T07:49:02.806Z,9.31
2023-01-09T07:50:02.801Z,9.25
2023-01-09T07:51:02.849Z,9.19
2023-01-09T07:52:02.779Z,9.08
2023-01-09T07:53:02.758Z,8.99
2023-01-09T07:54:02.749Z,9.08
2023-01-09T07:55:02.742Z,9.22
2023-01-09T07:56:02.727Z,9.29
2023-01-09T07:57:02.737Z,9.19
2023-01-09T07:58:02.708Z,9.22
2023-01-09T07:59:02.688Z,9.19
2023-01-09T08:00:02.708Z,9.06
2023-01-09T08:01:02.712Z,9.18
2023-01-09T08:02:02.739Z,9.26
2023-01-09T08:03:02.708Z,9.26
2023-01-09T08:04:02.641Z,9.36
2023-01-09T08:05:02.642Z,9.41
2023-01-09T08:06:02.621Z,9.51
2023-01-09T08:07:02.599Z,9.65
2023-01-09T08:08:02.604Z,9.61
2023-01-09T08:09:02.597Z,9.61
2023-01-09T08:10:02.567Z,9.56
2023-01-09T08:11:02.558Z,9.58
2023-01-09T08:12:02.557Z,9.65
2023-01-09T08:13:02.537Z,9.65
2023-01-09T08:14:02.527Z,9.62
2023-01-09T08:15:02.550Z,9.62
2023-01-09T08:16:02.527Z,9.68
2023-01-09T08:17:02.488Z,9.72
2023-01-09T08:18:02.488Z,9.65
2023-01-09T08:19:02.469Z,9.56
2023-01-09T08:20:02.477Z,9.58
2023-01-09T08:21:02.454Z,9.65
2023-01-09T08:22:02.449Z,9.58
2023-01-09T08:23:02.416Z,9.61
2023-01-09T08:24:02.410Z,9.64
2023-01-09T08:25:02.401Z,9.66
2023-01-09T08:26:02.427Z,9.68
2023-01-09T08:27:02.382Z,9.72
2023-01-09T08:28:02.391Z,9.69
2023-01-09T08:29:02.359Z,9.66
2023-01-09T08:30:02.347Z,9.59
2023-01-09T08:31:02.327Z,9.66
2023-01-09T08:32:02.339Z,9.69
2023-01-09T08:33:02.309Z,9.73
2023-01-09T08:34:02.306Z,9.68
2023-01-09T08:35:02.352Z,9.68
2023-01-09T08:36:02.322Z,9.61
2023-01-09T08:37:02.267Z,9.55
2023-01-09T08:38:02.265Z,9.66
2023-01-09T08:39:02.239Z,9.62
2023-01-09T08:40:02.246Z,9.68
2023-01-09T08:41:02.228Z,9.68
2023-01-09T08:42:02.206Z,9.64
2023-01-09T08:43:02.219Z,9.69
2023-01-09T08:44:02.192Z,9.66
2023-01-09T08:45:02.178Z,9.77
2023-01-09T08:46:02.215Z,9.72
2023-01-09T08:47:02.158Z,9.79
2023-01-09T08:48:02.146Z,9.83
2023-01-09T08:49:02.172Z,9.89
2023-01-09T08:50:02.121Z,9.83
2023-01-09T08:51:02.126Z,9.94
2023-01-09T08:52:02.097Z,9.84
2023-01-09T08:53:02.089Z,9.87
2023-01-09T08:54:02.092Z,9.91
2023-01-09T08:55:02.124Z,9.98
2023-01-09T08:56:02.056Z,9.92
2023-01-09T08:57:02.037Z,9.87
2023-01-09T08:58:02.037Z,9.86
2023-01-09T08:59:02.106Z,9.77
2023-01-09T09:00:02.008Z,9.79
2023-01-09T09:01:02.017Z,9.84
2023-01-09T09:02:01.991Z,9.79
2023-01-09T09:03:02.026Z,9.87
2023-01-09T09:04:01.966Z,9.84
2023-01-09T09:05:01.951Z,9.92
2023-01-09T09:06:01.949Z,10.01
2023-01-09T09:07:01.955Z,10.04
2023-01-09T09:08:01.916Z,10.22
2023-01-09T09:09:01.905Z,10.19
2023-01-09T09:10:01.904Z,10.19
2023-01-09T09:11:01.876Z,10.23
2023-01-09T09:12:01.877Z,10.37
2023-01-09T09:13:01.889Z,10.48
2023-01-09T09:14:01.856Z,10.53
2023-01-09T09:15:01.835Z,10.56
2023-01-09T09:16:01.948Z,10.42
2023-01-09T09:17:01.816Z,10.51
2023-01-09T09:18:01.809Z,10.57
2023-01-09T09:19:01.807Z,10.54
2023-01-09T09:20:01.785Z,10.61
2023-01-09T09:21:01.773Z,10.57
2023-01-09T09:22:01.760Z,10.44
2023-01-09T09:23:01.746Z,10.34
2023-01-09T09:24:01.739Z,10.38
2023-01-09T09:25:01.743Z,10.23
2023-01-09T09:26:01.707Z,10.13
2023-01-09T09:27:01.697Z,10.09
2023-01-09T09:28:01.687Z,10.19
2023-01-09T09:29:01.682Z,10.37
2023-01-09T09:30:01.682Z,10.71
2023-01-09T09:31:01.680Z,10.84
2023-01-09T09:32:01.649Z,10.81
2023-01-09T09:33:01.635Z,10.97
2023-01-09T09:34:01.619Z,10.92
2023-01-09T09:35:01.614Z,10.84
2023-01-09T09:36:01.629Z,10.71
2023-01-09T09:37:01.626Z,10.75
2023-01-09T09:38:03.995Z,10.86
2023-01-09T09:39:01.574Z,10.84
2023-01-09T09:40:13.427Z,10.75
2023-01-09T09:41:02.567Z,10.69
2023-01-09T09:42:01.526Z,10.81
2023-01-09T09:43:01.530Z,10.94
2023-01-09T09:44:01.536Z,10.78
2023-01-09T09:45:01.502Z,10.67
2023-01-09T09:46:01.563Z,10.71
2023-01-09T09:47:01.496Z,10.86
2023-01-09T09:48:01.455Z,10.78
2023-01-09T09:49:01.460Z,10.90
2023-01-09T09:50:01.438Z,10.75
2023-01-09T09:51:01.440Z,10.81
2023-01-09T09:52:01.419Z,10.79
2023-01-09T09:53:01.419Z,10.94
2023-01-09T09:54:01.406Z,10.92
2023-01-09T09:55:01.375Z,10.94
2023-01-09T09:56:01.375Z,11.02
2023-01-09T09:57:01.355Z,11.19
2023-01-09T09:58:01.436Z,11.05
2023-01-09T09:59:01.339Z,11.10
2023-01-09T10:00:01.317Z,11.10
2023-01-09T10:01:01.321Z,10.87
2023-01-09T10:02:01.459Z,10.89
2023-01-09T10:03:01.308Z,11.00
2023-01-09T10:04:01.382Z,11.10
2023-01-09T10:05:01.270Z,11.29
2023-01-09T10:06:01.246Z,11.47
2023-01-09T10:07:01.235Z,11.54
2023-01-09T10:08:11.535Z,11.41
2023-01-09T10:09:02.247Z,11.25
2023-01-09T10:10:01.214Z,11.25
2023-01-09T10:11:01.209Z,11.57
2023-01-09T10:12:01.180Z,11.77
2023-01-09T10:13:01.176Z,11.86
2023-01-09T10:14:01.894Z,11.88
2023-01-09T10:15:01.242Z,11.88
2023-01-09T10:16:01.165Z,11.73
2023-01-09T10:17:01.130Z,11.87
2023-01-09T10:18:01.116Z,11.94
2023-01-09T10:19:01.109Z,11.72
2023-01-09T10:20:01.104Z,11.72
2023-01-09T10:21:01.098Z,11.45
2023-01-09T10:22:01.076Z,11.62
2023-01-09T10:23:01.065Z,11.78
2023-01-09T10:24:01.044Z,11.84
2023-01-09T10:25:01.039Z,11.84
2023-01-09T10:26:01.052Z,11.94
2023-01-09T10:27:01.029Z,12.18
2023-01-09T10:28:01.004Z,12.17
2023-01-09T10:29:00.987Z,12.20
2023-01-09T10:30:00.981Z,12.15
2023-01-09T10:31:01.049Z,11.72
2023-01-09T10:32:00.971Z,11.63
2023-01-09T10:33:00.946Z,11.41
2023-01-09T10:34:00.928Z,11.36
2023-01-09T10:35:00.916Z,11.44
2023-01-09T10:36:00.910Z,11.47
2023-01-09T10:37:00.995Z,11.52
2023-01-09T10:38:00.898Z,11.41
2023-01-09T10:39:00.876Z,11.40
2023-01-09T10:40:00.879Z,11.48
2023-01-09T10:41:01.989Z,11.52
2023-01-09T10:42:00.842Z,11.33
2023-01-09T10:43:00.847Z,11.22
2023-01-09T10:44:00.824Z,11.33
2023-01-09T10:45:00.811Z,11.26
2023-01-09T10:46:00.786Z,11.27
2023-01-09T10:47:00.909Z,11.35
2023-01-09T10:48:00.813Z,11.43
2023-01-09T10:49:00.759Z,11.43
2023-01-09T10:50:00.744Z,11.29
2023-01-09T10:51:00.742Z,11.32
2023-01-09T10:52:00.726Z,11.40
2023-01-09T10:53:00.717Z,11.48
2023-01-09T10:54:00.725Z,11.62
2023-01-09T10:55:00.697Z,11.77
2023-01-09T10:56:00.679Z,11.77
2023-01-09T10:57:00.671Z,11.75
2023-01-09T10:58:00.663Z,11.83
2023-01-09T10:59:00.652Z,11.99
2023-01-09T11:00:00.680Z,12.20
2023-01-09T11:01:00.625Z,12.53
2023-01-09T11:02:00.662Z,12.40
2023-01-09T11:03:00.650Z,12.20
2023-01-09T11:04:00.587Z,12.03
2023-01-09T11:05:00.579Z,11.88
2023-01-09T11:06:00.577Z,11.84
2023-01-09T11:07:00.558Z,11.83
2023-01-09T11:08:00.536Z,11.78
2023-01-09T11:09:00.531Z,11.63
2023-01-09T11:10:00.533Z,11.33
2023-01-09T11:11:00.535Z,11.26
2023-01-09T11:12:00.508Z,11.41
2023-01-09T11:13:00.488Z,11.52
2023-01-09T11:14:00.475Z,11.36
2023-01-09T11:15:00.470Z,11.48
2023-01-09T11:16:00.486Z,11.60
2023-01-09T11:17:00.456Z,11.75
2023-01-09T11:18:00.472Z,11.81
2023-01-09T11:19:00.430Z,11.80
2023-01-09T11:20:00.395Z,11.83
2023-01-09T11:21:00.397Z,11.69
2023-01-09T11:22:00.377Z,11.60
2023-01-09T11:23:00.387Z,11.43
2023-01-09T11:24:00.356Z,11.17
2023-01-09T11:25:00.351Z,11.33
2023-01-09T11:26:00.337Z,11.32
2023-01-09T11:27:00.327Z,11.15
2023-01-09T11:28:00.327Z,11.14
2023-01-09T11:29:00.308Z,11.15
2023-01-09T11:30:00.297Z,11.54
2023-01-09T11:31:00.293Z,11.88
2023-01-09T11:32:00.266Z,12.28
2023-01-09T11:33:00.259Z,12.24
2023-01-09T11:34:00.501Z,12.42
2023-01-09T11:35:00.228Z,12.62
2023-01-09T11:36:00.218Z,12.72
2023-01-09T11:37:00.246Z,12.64
2023-01-09T11:38:00.209Z,12.61
2023-01-09T11:39:00.188Z,12.54
2023-01-09T11:40:00.219Z,12.86
2023-01-09T11:41:00.170Z,12.94
2023-01-09T11:42:00.145Z,12.65
2023-01-09T11:43:00.144Z,12.91
2023-01-09T11:44:00.127Z,13.01
2023-01-09T11:45:00.158Z,13.31
2023-01-09T11:46:01.833Z,13.49
2023-01-09T11:47:00.160Z,13.53
2023-01-09T11:48:00.098Z,13.13
2023-01-09T11:49:00.074Z,13.08
2023-01-09T11:50:00.060Z,13.25
2023-01-09T11:51:00.069Z,13.22
2023-01-09T11:52:00.051Z,13.16
2023-01-09T11:53:00.026Z,13.13
2023-01-09T11:54:00.016Z,13.23
2023-01-09T11:55:00.031Z,13.38
2023-01-09T11:55:59.997Z,13.27
2023-01-09T11:57:00.019Z,12.91
2023-01-09T11:57:59.971Z,12.50
2023-01-09T11:58:59.959Z,12.31
2023-01-09T12:00:00.016Z,11.95
2023-01-09T12:00:59.941Z,11.78
2023-01-09T12:01:59.991Z,11.73
2023-01-09T12:02:59.978Z,11.84
2023-01-09T12:03:59.898Z,11.87
2023-01-09T12:04:59.969Z,11.86
2023-01-09T12:05:59.877Z,11.95
2023-01-09T12:06:59.868Z,11.88
2023-01-09T12:07:59.862Z,11.80
2023-01-09T12:08:59.872Z,12.00
2023-01-09T12:09:59.848Z,12.10
2023-01-09T12:10:59.822Z,12.28
2023-01-09T12:11:59.821Z,12.43
2023-01-09T12:12:59.821Z,12.64
2023-01-09T12:13:59.850Z,12.58
2023-01-09T12:14:59.800Z,12.53
2023-01-09T12:15:59.803Z,12.50
2023-01-09T12:16:59.756Z,12.57
2023-01-09T12:17:59.725Z,12.54
2023-01-09T12:18:59.728Z,12.47
2023-01-09T12:19:59.717Z,12.40
2023-01-09T12:20:59.719Z,12.40
2023-01-09T12:21:59.699Z,12.49
2023-01-09T12:22:59.700Z,12.76
2023-01-09T12:23:59.668Z,12.91
2023-01-09T12:24:59.658Z,13.09
2023-01-09T12:25:59.699Z,13.08
2023-01-09T12:26:59.652Z,13.03
2023-01-09T12:27:59.632Z,13.16
2023-01-09T12:28:59.620Z,13.37
2023-01-09T12:29:59.598Z,13.38
2023-01-09T12:30:59.606Z,13.54
2023-01-09T12:31:59.658Z,13.20
2023-01-09T12:32:59.567Z,13.27
2023-01-09T12:33:59.557Z,13.38
2023-01-09T12:34:59.549Z,13.56
2023-01-09T12:35:59.529Z,13.75
2023-01-09T12:36:59.659Z,13.95
2023-01-09T12:37:59.559Z,13.87
2023-01-09T12:38:59.498Z,13.85
2023-01-09T12:39:59.488Z,13.86
2023-01-09T12:40:59.469Z,13.79
2023-01-09T12:41:59.550Z,13.74
2023-01-09T12:42:59.452Z,13.81
2023-01-09T12:43:59.463Z,13.83
2023-01-09T12:44:59.438Z,13.81
2023-01-09T12:45:59.464Z,13.83
2023-01-09T12:46:59.421Z,13.92
2023-01-09T12:47:59.406Z,13.97
2023-01-09T12:48:59.398Z,13.85
2023-01-09T12:49:59.400Z,13.60
2023-01-09T12:50:59.370Z,13.39
2023-01-09T12:51:59.359Z,13.27
2023-01-09T12:52:59.356Z,13.01
2023-01-09T12:53:59.581Z,13.00
2023-01-09T12:54:59.321Z,12.90
2023-01-09T12:55:59.324Z,12.70
2023-01-09T12:56:59.290Z,12.70
2023-01-09T12:57:59.283Z,12.76
2023-01-09T12:58:59.267Z,12.70
2023-01-09T12:59:59.250Z,12.70